createdAt,value
2019-05-22T00:00:05.616Z,14.90
2019-05-22T00:01:09.909Z,14.80
2019-05-22T00:02:07.611Z,14.80
2019-05-22T00:03:05.554Z,14.80
2019-05-22T00:04:05.587Z,14.80
2019-05-22T00:05:04.980Z,14.80
2019-05-22T00:06:07.577Z,14.90
2019-05-22T00:07:05.493Z,14.90
2019-05-22T00:08:13.163Z,14.90
2019-05-22T00:09:10.298Z,14.90
2019-05-22T00:10:05.443Z,14.90
2019-05-22T00:11:08.124Z,14.90
2019-05-22T00:12:05.046Z,14.90
2019-05-22T00:13:05.075Z,14.90
2019-05-22T00:14:05.274Z,14.90
2019-05-22T00:15:05.432Z,14.90
2019-05-22T00:16:05.598Z,14.90
2019-05-22T00:17:05.120Z,14.90
2019-05-22T00:18:10.271Z,14.90
2019-05-22T00:19:07.785Z,14.90
2019-05-22T00:20:04.685Z,14.90
2019-05-22T00:21:07.222Z,15.00
2019-05-22T00:22:07.829Z,14.90
2019-05-22T00:23:08.198Z,14.90
2019-05-22T00:24:05.257Z,15.00
2019-05-22T00:25:05.365Z,14.90
2019-05-22T00:26:05.570Z,14.90
2019-05-22T00:27:04.970Z,14.90
2019-05-22T00:28:05.307Z,14.90
2019-05-22T00:29:10.522Z,14.90
2019-05-22T00:30:05.509Z,14.90
2019-05-22T00:31:05.616Z,14.90
2019-05-22T00:32:09.909Z,14.90
2019-05-22T00:33:07.541Z,14.90
2019-05-22T00:34:08.157Z,14.90
2019-05-22T00:35:05.106Z,14.90
2019-05-22T00:36:05.279Z,14.90
2019-05-22T00:37:08.020Z,14.90
2019-05-22T00:38:04.934Z,14.90
2019-05-22T00:39:07.625Z,14.90
2019-05-22T00:40:05.709Z,14.90
2019-05-22T00:41:04.841Z,14.90
2019-05-22T00:42:07.388Z,14.90
2019-05-22T00:43:13.061Z,14.80
2019-05-22T00:44:08.005Z,14.80
2019-05-22T00:45:07.464Z,14.80
2019-05-22T00:46:05.513Z,14.80
2019-05-22T00:47:05.652Z,14.80
2019-05-22T00:48:04.874Z,14.80
2019-05-22T00:49:05.057Z,14.80
2019-05-22T00:50:07.763Z,14.80
2019-05-22T00:51:07.322Z,14.80
2019-05-22T00:52:05.278Z,14.80
2019-05-22T00:53:05.278Z,14.80
2019-05-22T00:54:07.951Z,14.80
2019-05-22T00:55:04.914Z,14.80
2019-05-22T00:56:04.969Z,14.80
2019-05-22T00:57:05.131Z,14.70
2019-05-22T00:58:05.246Z,14.70
2019-05-22T00:59:05.440Z,14.70
2019-05-22T01:00:05.542Z,14.70
2019-05-22T01:01:05.606Z,14.70
2019-05-22T01:02:08.178Z,14.70
2019-05-22T01:03:07.780Z,14.70
2019-05-22T01:04:09.796Z,14.70
2019-05-22T01:05:09.827Z,14.70
2019-05-22T01:06:04.734Z,14.70
2019-05-22T01:07:07.600Z,14.70
2019-05-22T01:08:05.527Z,14.70
2019-05-22T01:09:08.165Z,14.70
2019-05-22T01:10:05.383Z,14.70
2019-05-22T01:11:08.059Z,14.70
2019-05-22T01:12:07.559Z,14.70
2019-05-22T01:13:05.501Z,14.70
2019-05-22T01:14:08.136Z,14.70
2019-05-22T01:15:05.082Z,14.70
2019-05-22T01:16:05.087Z,14.70
2019-05-22T01:17:05.128Z,14.70
2019-05-22T01:18:12.902Z,14.60
2019-05-22T01:19:04.933Z,14.70
2019-05-22T01:20:05.054Z,14.70
2019-05-22T01:21:05.159Z,14.70
2019-05-22T01:22:07.724Z,14.70
2019-05-22T01:23:07.224Z,14.70
2019-05-22T01:24:10.326Z,14.70
2019-05-22T01:25:05.257Z,14.70
2019-05-22T01:26:05.344Z,14.70
2019-05-22T01:27:05.631Z,14.70
2019-05-22T01:28:07.363Z,14.70
2019-05-22T01:29:05.255Z,14.60
2019-05-22T01:30:05.402Z,14.60
2019-05-22T01:31:05.475Z,14.60
2019-05-22T01:32:05.519Z,14.60
2019-05-22T01:33:09.888Z,14.60
2019-05-22T01:34:07.341Z,14.60
2019-05-22T01:35:05.254Z,14.60
2019-05-22T01:36:05.267Z,14.60
2019-05-22T01:37:05.323Z,14.60
2019-05-22T01:38:07.932Z,14.60
2019-05-22T01:39:04.821Z,14.60
2019-05-22T01:40:07.656Z,14.60
2019-05-22T01:41:05.643Z,14.60
2019-05-22T01:42:04.675Z,14.60
2019-05-22T01:43:04.980Z,14.60
2019-05-22T01:44:07.533Z,14.60
2019-05-22T01:45:06.894Z,14.60
2019-05-22T01:46:05.048Z,14.50
2019-05-22T01:47:05.094Z,14.60
2019-05-22T01:48:05.758Z,14.60
2019-05-22T01:49:05.575Z,14.60
2019-05-22T01:50:05.007Z,14.60
2019-05-22T01:51:07.584Z,14.60
2019-05-22T01:52:07.971Z,14.60
2019-05-22T01:53:04.891Z,14.60
2019-05-22T01:54:05.016Z,14.60
2019-05-22T01:55:05.137Z,14.60
2019-05-22T01:56:05.245Z,14.60
2019-05-22T01:57:07.882Z,14.60
2019-05-22T01:58:04.736Z,14.60
2019-05-22T01:59:04.832Z,14.60
2019-05-22T02:00:04.879Z,14.60
2019-05-22T02:01:05.003Z,14.60
2019-05-22T02:02:05.043Z,14.60
2019-05-22T02:03:05.137Z,14.60
2019-05-22T02:04:07.660Z,14.60
2019-05-22T02:05:05.587Z,14.60
2019-05-22T02:06:04.711Z,14.60
2019-05-22T02:07:07.397Z,14.50
2019-05-22T02:08:05.454Z,14.50
2019-05-22T02:09:05.497Z,14.50
2019-05-22T02:10:08.146Z,14.50
2019-05-22T02:11:05.025Z,14.50
2019-05-22T02:12:07.746Z,14.50
2019-05-22T02:13:07.295Z,14.50
2019-05-22T02:14:07.864Z,14.40
2019-05-22T02:15:04.814Z,14.40
2019-05-22T02:16:07.377Z,14.40
2019-05-22T02:17:05.333Z,14.40
2019-05-22T02:18:08.081Z,14.40
2019-05-22T02:19:05.105Z,14.40
2019-05-22T02:20:05.253Z,14.40
2019-05-22T02:21:05.684Z,14.40
2019-05-22T02:22:07.224Z,14.40
2019-05-22T02:23:05.147Z,14.40
2019-05-22T02:24:07.811Z,14.50
2019-05-22T02:25:09.731Z,14.40
2019-05-22T02:26:08.231Z,14.40
2019-05-22T02:27:05.149Z,14.50
2019-05-22T02:28:05.249Z,14.40
2019-05-22T02:29:07.961Z,14.40
2019-05-22T02:30:07.392Z,14.40
2019-05-22T02:31:05.353Z,14.40
2019-05-22T02:32:05.586Z,14.40
2019-05-22T02:33:04.740Z,14.30
2019-05-22T02:34:04.776Z,14.30
2019-05-22T02:35:04.996Z,14.40
2019-05-22T02:36:05.346Z,14.40
2019-05-22T02:37:05.558Z,14.30
2019-05-22T02:38:04.745Z,14.30
2019-05-22T02:39:04.850Z,14.30
2019-05-22T02:40:04.988Z,14.30
2019-05-22T02:41:05.271Z,14.30
2019-05-22T02:42:05.509Z,14.30
2019-05-22T02:43:08.284Z,14.20
2019-05-22T02:44:05.207Z,14.20
2019-05-22T02:45:10.703Z,14.20
2019-05-22T02:46:04.730Z,14.20
2019-05-22T02:47:18.645Z,14.20
2019-05-22T02:48:07.765Z,14.10
2019-05-22T02:49:04.698Z,14.10
2019-05-22T02:50:04.918Z,14.10
2019-05-22T02:51:05.085Z,14.10
2019-05-22T02:52:07.888Z,14.10
2019-05-22T02:53:05.174Z,14.10
2019-05-22T02:54:07.733Z,14.10
2019-05-22T02:55:04.685Z,14.10
2019-05-22T02:56:04.723Z,14.10
2019-05-22T02:57:04.956Z,14.10
2019-05-22T02:58:07.693Z,14.10
2019-05-22T02:59:08.111Z,14.00
2019-05-22T03:00:04.987Z,14.00
2019-05-22T03:01:07.646Z,14.00
2019-05-22T03:02:08.086Z,14.00
2019-05-22T03:03:05.009Z,14.00
2019-05-22T03:04:05.016Z,14.00
2019-05-22T03:05:05.017Z,14.00
2019-05-22T03:06:10.139Z,14.00
2019-05-22T03:07:07.559Z,14.00
2019-05-22T03:08:05.447Z,14.00
2019-05-22T03:09:10.683Z,13.90
2019-05-22T03:10:05.721Z,13.90
2019-05-22T03:11:07.286Z,13.90
2019-05-22T03:12:05.358Z,13.90
2019-05-22T03:13:08.016Z,13.90
2019-05-22T03:14:04.929Z,13.90
2019-05-22T03:15:05.009Z,13.90
2019-05-22T03:16:07.579Z,13.90
2019-05-22T03:17:08.124Z,13.90
2019-05-22T03:18:05.064Z,13.80
2019-05-22T03:19:08.594Z,13.80
2019-05-22T03:20:05.373Z,13.80
2019-05-22T03:21:10.510Z,13.90
2019-05-22T03:22:08.062Z,13.80
2019-05-22T03:23:04.958Z,13.80
2019-05-22T03:24:05.101Z,13.80
2019-05-22T03:25:10.328Z,13.90
2019-05-22T03:26:07.769Z,13.80
2019-05-22T03:27:07.275Z,13.80
2019-05-22T03:28:07.772Z,13.80
2019-05-22T03:29:07.358Z,13.80
2019-05-22T03:30:07.871Z,13.80
2019-05-22T03:31:09.839Z,13.80
2019-05-22T03:32:07.283Z,13.80
2019-05-22T03:33:05.476Z,13.80
2019-05-22T03:34:07.382Z,13.80
2019-05-22T03:35:10.423Z,13.80
2019-05-22T03:36:07.966Z,13.80
2019-05-22T03:37:09.896Z,13.80
2019-05-22T03:38:04.823Z,13.80
2019-05-22T03:39:04.900Z,13.80
2019-05-22T03:40:05.142Z,13.80
2019-05-22T03:41:05.267Z,13.80
2019-05-22T03:42:05.489Z,13.80
2019-05-22T03:43:05.607Z,13.70
2019-05-22T03:44:05.629Z,13.70
2019-05-22T03:45:05.113Z,13.70
2019-05-22T03:46:07.835Z,13.70
2019-05-22T03:47:04.826Z,13.70
2019-05-22T03:48:09.951Z,13.70
2019-05-22T03:49:04.953Z,13.70
2019-05-22T03:50:07.729Z,13.70
2019-05-22T03:51:04.699Z,13.70
2019-05-22T03:52:04.837Z,13.70
2019-05-22T03:53:05.056Z,13.70
2019-05-22T03:54:07.729Z,13.70
2019-05-22T03:55:07.423Z,13.70
2019-05-22T03:56:05.320Z,13.70
2019-05-22T03:57:07.901Z,13.70
2019-05-22T03:58:10.085Z,13.70
2019-05-22T03:59:07.670Z,13.70
2019-05-22T04:00:05.633Z,13.70
2019-05-22T04:01:07.273Z,13.70
2019-05-22T04:02:05.385Z,13.70
2019-05-22T04:03:05.538Z,13.70
2019-05-22T04:04:08.205Z,13.70
2019-05-22T04:05:05.082Z,13.70
2019-05-22T04:06:05.135Z,13.70
2019-05-22T04:07:05.232Z,13.70
2019-05-22T04:08:05.325Z,13.70
2019-05-22T04:09:05.358Z,13.70
2019-05-22T04:10:05.428Z,13.70
2019-05-22T04:11:05.517Z,13.70
2019-05-22T04:12:05.605Z,13.70
2019-05-22T04:13:04.722Z,13.70
2019-05-22T04:14:07.632Z,13.70
2019-05-22T04:15:05.537Z,13.70
2019-05-22T04:16:10.183Z,13.70
2019-05-22T04:17:07.650Z,13.70
2019-05-22T04:18:05.611Z,13.70
2019-05-22T04:19:05.156Z,13.70
2019-05-22T04:20:07.585Z,13.70
2019-05-22T04:21:05.494Z,13.70
2019-05-22T04:22:05.202Z,13.70
2019-05-22T04:23:05.393Z,13.80
2019-05-22T04:24:10.112Z,13.70
2019-05-22T04:25:05.840Z,13.70
2019-05-22T04:26:05.077Z,13.80
2019-05-22T04:27:05.074Z,13.70
2019-05-22T04:28:07.845Z,13.80
2019-05-22T04:29:09.890Z,13.80
2019-05-22T04:30:07.968Z,13.80
2019-05-22T04:31:04.942Z,13.80
2019-05-22T04:32:07.970Z,13.80
2019-05-22T04:33:07.767Z,13.80
2019-05-22T04:34:04.919Z,13.80
2019-05-22T04:35:10.190Z,13.80
2019-05-22T04:36:07.777Z,13.80
2019-05-22T04:37:10.747Z,13.80
2019-05-22T04:38:07.335Z,13.80
2019-05-22T04:39:05.216Z,13.80
2019-05-22T04:40:05.241Z,13.80
2019-05-22T04:41:05.287Z,13.80
2019-05-22T04:42:07.973Z,13.90
2019-05-22T04:43:04.928Z,13.80
2019-05-22T04:44:05.089Z,13.80
2019-05-22T04:45:05.140Z,13.80
2019-05-22T04:46:05.164Z,13.80
2019-05-22T04:47:05.222Z,13.80
2019-05-22T04:48:10.333Z,13.80
2019-05-22T04:49:05.422Z,13.80
2019-05-22T04:50:07.761Z,13.80
2019-05-22T04:51:07.767Z,13.80
2019-05-22T04:52:07.388Z,13.80
2019-05-22T04:53:07.854Z,13.80
2019-05-22T04:54:04.863Z,13.80
2019-05-22T04:55:07.599Z,13.80
2019-05-22T04:56:10.778Z,13.80
2019-05-22T04:57:04.885Z,13.80
2019-05-22T04:58:05.194Z,13.80
2019-05-22T04:59:08.765Z,13.80
2019-05-22T05:00:07.270Z,13.80
2019-05-22T05:01:05.258Z,13.80
2019-05-22T05:02:05.387Z,13.80
2019-05-22T05:03:08.024Z,13.80
2019-05-22T05:04:07.469Z,13.80
2019-05-22T05:05:05.364Z,13.80
2019-05-22T05:06:06.759Z,13.70
2019-05-22T05:07:05.213Z,13.80
2019-05-22T05:08:05.362Z,13.80
2019-05-22T05:09:05.439Z,13.80
2019-05-22T05:10:10.728Z,13.80
2019-05-22T05:11:04.690Z,13.80
2019-05-22T05:12:07.418Z,13.80
2019-05-22T05:13:08.121Z,13.80
2019-05-22T05:14:05.123Z,13.80
2019-05-22T05:15:05.190Z,13.80
2019-05-22T05:16:05.245Z,13.80
2019-05-22T05:17:05.484Z,13.80
2019-05-22T05:18:07.312Z,13.80
2019-05-22T05:19:07.858Z,13.80
2019-05-22T05:20:04.855Z,13.80
2019-05-22T05:21:04.981Z,13.80
2019-05-22T05:22:04.958Z,13.80
2019-05-22T05:23:05.072Z,13.80
2019-05-22T05:24:05.048Z,13.80
2019-05-22T05:25:07.631Z,13.70
2019-05-22T05:26:05.538Z,13.70
2019-05-22T05:27:08.123Z,13.80
2019-05-22T05:28:05.008Z,13.70
2019-05-22T05:29:05.157Z,13.70
2019-05-22T05:30:05.160Z,13.70
2019-05-22T05:31:05.697Z,13.70
2019-05-22T05:32:04.870Z,13.70
2019-05-22T05:33:10.121Z,13.70
2019-05-22T05:34:07.646Z,13.70
2019-05-22T05:35:08.045Z,13.70
2019-05-22T05:36:05.038Z,13.80
2019-05-22T05:37:10.195Z,13.70
2019-05-22T05:38:05.166Z,13.80
2019-05-22T05:39:07.828Z,13.70
2019-05-22T05:40:04.859Z,13.70
2019-05-22T05:41:07.593Z,13.80
2019-05-22T05:42:13.181Z,13.80
2019-05-22T05:43:07.618Z,13.80
2019-05-22T05:44:05.625Z,13.80
2019-05-22T05:45:05.298Z,13.80
2019-05-22T05:46:08.029Z,13.80
2019-05-22T05:47:05.043Z,13.80
2019-05-22T05:48:07.646Z,13.80
2019-05-22T05:49:08.230Z,13.80
2019-05-22T05:50:05.202Z,13.80
2019-05-22T05:51:06.659Z,13.80
2019-05-22T05:52:07.266Z,13.80
2019-05-22T05:53:05.244Z,13.80
2019-05-22T05:54:07.816Z,13.80
2019-05-22T05:55:07.327Z,13.90
2019-05-22T05:56:10.412Z,13.80
2019-05-22T05:57:05.301Z,13.90
2019-05-22T05:58:07.922Z,13.90
2019-05-22T05:59:05.092Z,13.90
2019-05-22T06:00:07.716Z,13.90
2019-05-22T06:01:05.870Z,13.90
2019-05-22T06:02:07.524Z,14.00
2019-05-22T06:03:08.007Z,14.00
2019-05-22T06:04:04.937Z,14.00
2019-05-22T06:05:07.760Z,14.00
2019-05-22T06:06:10.505Z,14.00
2019-05-22T06:07:07.980Z,14.00
2019-05-22T06:08:04.908Z,14.00
2019-05-22T06:09:05.068Z,14.00
2019-05-22T06:10:10.408Z,14.00
2019-05-22T06:11:08.040Z,14.10
2019-05-22T06:12:07.466Z,14.10
2019-05-22T06:13:08.030Z,14.10
2019-05-22T06:14:07.577Z,14.10
2019-05-22T06:15:08.082Z,14.10
2019-05-22T06:16:07.559Z,14.10
2019-05-22T06:17:05.489Z,14.10
2019-05-22T06:18:10.939Z,14.10
2019-05-22T06:19:10.295Z,14.10
2019-05-22T06:20:10.276Z,14.10
2019-05-22T06:21:07.896Z,14.10
2019-05-22T06:22:07.456Z,14.10
2019-05-22T06:23:07.893Z,14.10
2019-05-22T06:24:04.813Z,14.10
2019-05-22T06:25:05.209Z,14.10
2019-05-22T06:26:04.909Z,14.10
2019-05-22T06:27:05.122Z,14.10
2019-05-22T06:28:05.257Z,14.20
2019-05-22T06:29:07.877Z,14.20
2019-05-22T06:30:10.022Z,14.20
2019-05-22T06:31:07.548Z,14.20
2019-05-22T06:32:08.006Z,14.30
2019-05-22T06:33:07.653Z,14.30
2019-05-22T06:34:07.335Z,14.30
2019-05-22T06:35:05.427Z,14.30
2019-05-22T06:36:07.217Z,14.30
2019-05-22T06:37:05.190Z,14.30
2019-05-22T06:38:08.030Z,14.30
2019-05-22T06:39:07.669Z,14.40
2019-05-22T06:40:05.640Z,14.30
2019-05-22T06:41:04.805Z,14.40
2019-05-22T06:42:05.043Z,14.40
2019-05-22T06:43:07.707Z,14.40
2019-05-22T06:44:10.676Z,14.40
2019-05-22T06:45:05.342Z,14.40
2019-05-22T06:46:07.413Z,14.40
2019-05-22T06:47:05.433Z,14.40
2019-05-22T06:48:04.960Z,14.40
2019-05-22T06:49:10.335Z,14.40
2019-05-22T06:50:07.931Z,14.40
2019-05-22T06:51:18.468Z,14.40
2019-05-22T06:52:07.220Z,14.40
2019-05-22T06:53:09.626Z,14.40
2019-05-22T06:54:05.280Z,14.40
2019-05-22T06:55:05.530Z,14.40
2019-05-22T06:56:05.189Z,14.40
2019-05-22T06:57:05.483Z,14.40
2019-05-22T06:58:05.915Z,14.40
2019-05-22T06:59:05.172Z,14.50
2019-05-22T07:00:13.795Z,14.40
2019-05-22T07:01:05.340Z,14.40
2019-05-22T07:02:05.360Z,14.40
2019-05-22T07:03:05.653Z,14.40
2019-05-22T07:04:09.912Z,14.50
2019-05-22T07:05:04.932Z,14.50
2019-05-22T07:06:07.921Z,14.50
2019-05-22T07:07:12.656Z,14.50
2019-05-22T07:08:07.236Z,14.50
2019-05-22T07:09:05.169Z,14.40
2019-05-22T07:10:05.323Z,14.50
2019-05-22T07:11:07.999Z,14.50
2019-05-22T07:12:07.856Z,14.50
2019-05-22T07:13:07.492Z,14.50
2019-05-22T07:14:08.052Z,14.50
2019-05-22T07:15:04.973Z,14.50
2019-05-22T07:16:05.097Z,14.50
2019-05-22T07:17:09.808Z,14.50
2019-05-22T07:18:04.861Z,14.50
2019-05-22T07:19:07.421Z,14.50
2019-05-22T07:20:05.391Z,14.50
2019-05-22T07:21:08.077Z,14.50
2019-05-22T07:22:04.994Z,14.50
2019-05-22T07:23:05.042Z,14.50
2019-05-22T07:24:05.058Z,14.50
2019-05-22T07:25:10.144Z,14.50
2019-05-22T07:26:04.945Z,14.50
2019-05-22T07:27:05.045Z,14.50
2019-05-22T07:28:07.540Z,14.50
2019-05-22T07:29:05.568Z,14.50
2019-05-22T07:30:05.752Z,14.50
2019-05-22T07:31:05.010Z,14.50
2019-05-22T07:32:05.192Z,14.50
2019-05-22T07:33:04.890Z,14.50
2019-05-22T07:34:05.057Z,14.50
2019-05-22T07:35:07.895Z,14.50
2019-05-22T07:36:09.742Z,14.50
2019-05-22T07:37:07.753Z,14.50
2019-05-22T07:38:07.429Z,14.50
2019-05-22T07:39:08.048Z,14.50
2019-05-22T07:40:05.152Z,14.50
2019-05-22T07:41:05.401Z,14.50
2019-05-22T07:42:05.732Z,14.50
2019-05-22T07:43:05.022Z,14.50
2019-05-22T07:44:05.220Z,14.60
2019-05-22T07:45:05.587Z,14.60
2019-05-22T07:46:04.828Z,14.60
2019-05-22T07:47:07.461Z,14.60
2019-05-22T07:48:05.673Z,14.60
2019-05-22T07:49:04.929Z,14.60
2019-05-22T07:50:05.201Z,14.70
2019-05-22T07:51:07.631Z,14.70
2019-05-22T07:52:05.611Z,14.70
2019-05-22T07:53:04.707Z,14.70
2019-05-22T07:54:04.825Z,14.70
2019-05-22T07:55:04.875Z,14.70
2019-05-22T07:56:05.409Z,14.70
2019-05-22T07:57:04.751Z,14.70
2019-05-22T07:58:07.259Z,14.80
2019-05-22T07:59:05.173Z,14.80
2019-05-22T08:00:10.363Z,14.80
2019-05-22T08:01:05.333Z,14.80
2019-05-22T08:02:08.010Z,14.80
2019-05-22T08:03:12.665Z,14.80
2019-05-22T08:04:08.299Z,14.80
2019-05-22T08:05:05.241Z,14.80
2019-05-22T08:06:07.880Z,14.80
2019-05-22T08:07:07.401Z,14.80
2019-05-22T08:08:05.355Z,14.80
2019-05-22T08:09:05.461Z,14.80
2019-05-22T08:10:08.095Z,14.80
2019-05-22T08:11:07.741Z,14.80
2019-05-22T08:12:07.323Z,14.80
2019-05-22T08:13:10.293Z,14.80
2019-05-22T08:14:07.852Z,14.80
2019-05-22T08:15:04.916Z,14.80
2019-05-22T08:16:05.256Z,14.80
2019-05-22T08:17:08.086Z,14.80
2019-05-22T08:18:07.573Z,14.80
2019-05-22T08:19:07.976Z,14.80
2019-05-22T08:20:04.930Z,14.80
2019-05-22T08:21:05.264Z,14.80
2019-05-22T08:22:07.559Z,14.80
2019-05-22T08:23:05.216Z,14.70
2019-05-22T08:24:05.407Z,14.70
2019-05-22T08:25:05.549Z,14.70
2019-05-22T08:26:08.198Z,14.70
2019-05-22T08:27:05.141Z,14.70
2019-05-22T08:28:07.717Z,14.70
2019-05-22T08:29:05.674Z,14.60
2019-05-22T08:30:04.740Z,14.60
2019-05-22T08:31:05.013Z,14.60
2019-05-22T08:32:07.803Z,14.60
2019-05-22T08:33:07.265Z,14.60
2019-05-22T08:34:05.198Z,14.60
2019-05-22T08:35:05.235Z,14.60
2019-05-22T08:36:05.264Z,14.50
2019-05-22T08:37:07.946Z,14.60
2019-05-22T08:38:05.007Z,14.60
2019-05-22T08:39:07.711Z,14.60
2019-05-22T08:40:05.579Z,14.60
2019-05-22T08:41:05.590Z,14.70
2019-05-22T08:42:04.852Z,14.70
2019-05-22T08:43:04.986Z,14.70
2019-05-22T08:44:15.771Z,14.80
2019-05-22T08:45:08.301Z,14.80
2019-05-22T08:46:05.191Z,14.80
2019-05-22T08:47:07.948Z,14.80
2019-05-22T08:48:04.887Z,14.80
2019-05-22T08:49:05.034Z,14.80
2019-05-22T08:50:05.096Z,14.90
2019-05-22T08:51:05.341Z,14.90
2019-05-22T08:52:22.386Z,14.90
2019-05-22T08:53:10.546Z,14.90
2019-05-22T08:54:06.078Z,14.90
2019-05-22T08:55:07.779Z,14.90
2019-05-22T08:56:04.710Z,14.90
2019-05-22T08:57:05.115Z,15.00
2019-05-22T08:58:07.843Z,15.00
2019-05-22T08:59:18.691Z,15.00
2019-05-22T09:00:07.828Z,15.10
2019-05-22T09:01:07.384Z,15.10
2019-05-22T09:02:07.868Z,15.10
2019-05-22T09:03:04.911Z,15.10
2019-05-22T09:04:07.539Z,15.20
2019-05-22T09:05:05.446Z,15.20
2019-05-22T09:06:05.614Z,15.20
2019-05-22T09:07:04.862Z,15.20
2019-05-22T09:08:07.534Z,15.20
2019-05-22T09:09:05.492Z,15.20
2019-05-22T09:10:08.217Z,15.20
2019-05-22T09:11:05.198Z,15.20
2019-05-22T09:12:05.368Z,15.30
2019-05-22T09:13:05.531Z,15.20
2019-05-22T09:14:08.248Z,15.20
2019-05-22T09:15:05.145Z,15.10
2019-05-22T09:16:07.678Z,15.10
2019-05-22T09:17:08.221Z,15.10
2019-05-22T09:18:05.488Z,15.10
2019-05-22T09:19:08.206Z,15.10
2019-05-22T09:20:10.562Z,15.00
2019-05-22T09:21:04.912Z,15.00
2019-05-22T09:22:07.569Z,15.00
2019-05-22T09:23:05.553Z,14.90
2019-05-22T09:24:10.724Z,14.90
2019-05-22T09:25:05.642Z,14.90
2019-05-22T09:26:07.594Z,14.90
2019-05-22T09:27:05.622Z,14.90
2019-05-22T09:28:04.752Z,14.80
2019-05-22T09:29:07.515Z,14.80
2019-05-22T09:30:05.493Z,14.80
2019-05-22T09:31:08.225Z,14.80
2019-05-22T09:32:07.818Z,14.80
2019-05-22T09:33:05.048Z,14.80
2019-05-22T09:34:07.772Z,14.80
2019-05-22T09:35:04.780Z,14.80
2019-05-22T09:36:04.969Z,14.80
2019-05-22T09:37:07.694Z,14.80
2019-05-22T09:38:05.202Z,14.80
2019-05-22T09:39:05.331Z,14.80
2019-05-22T09:40:12.971Z,14.90
2019-05-22T09:41:07.375Z,14.90
2019-05-22T09:42:05.299Z,14.90
2019-05-22T09:43:08.026Z,14.90
2019-05-22T09:44:04.997Z,14.90
2019-05-22T09:45:07.613Z,14.90
2019-05-22T09:46:05.609Z,14.90
2019-05-22T09:47:04.754Z,14.90
2019-05-22T09:48:07.378Z,14.90
2019-05-22T09:49:07.902Z,15.00
2019-05-22T09:50:09.925Z,14.90
2019-05-22T09:51:07.515Z,15.00
2019-05-22T09:52:13.162Z,14.90
2019-05-22T09:53:05.272Z,14.90
2019-05-22T09:54:08.075Z,14.90
2019-05-22T09:55:07.807Z,14.90
2019-05-22T09:56:10.158Z,14.90
2019-05-22T09:57:05.105Z,14.90
2019-05-22T09:58:05.216Z,14.90
2019-05-22T09:59:05.372Z,14.90
2019-05-22T10:00:05.487Z,14.90
2019-05-22T10:01:05.621Z,14.90
2019-05-22T10:02:04.676Z,14.90
2019-05-22T10:03:04.807Z,14.80
2019-05-22T10:04:04.974Z,14.80
2019-05-22T10:05:05.639Z,14.90
2019-05-22T10:06:05.051Z,14.90
2019-05-22T10:07:05.623Z,14.90
2019-05-22T10:08:07.338Z,14.90
2019-05-22T10:09:07.811Z,14.80
2019-05-22T10:10:04.798Z,14.80
2019-05-22T10:11:07.405Z,14.80
2019-05-22T10:12:10.568Z,14.80
2019-05-22T10:13:08.151Z,14.80
2019-05-22T10:14:05.224Z,14.80
2019-05-22T10:15:05.161Z,14.80
2019-05-22T10:16:09.814Z,14.80
2019-05-22T10:17:04.824Z,14.80
2019-05-22T10:18:08.310Z,14.80
2019-05-22T10:19:08.087Z,14.80
2019-05-22T10:20:12.614Z,14.70
2019-05-22T10:21:04.725Z,14.70
2019-05-22T10:22:05.725Z,14.80
2019-05-22T10:23:14.477Z,14.80
2019-05-22T10:24:05.364Z,14.80
2019-05-22T10:25:15.341Z,14.80
2019-05-22T10:26:05.085Z,14.80
2019-05-22T10:27:10.374Z,14.80
2019-05-22T10:28:07.931Z,14.90
2019-05-22T10:29:05.040Z,14.90
2019-05-22T10:30:05.468Z,14.90
2019-05-22T10:31:05.016Z,14.90
2019-05-22T10:32:05.033Z,14.90
2019-05-22T10:33:10.408Z,14.90
2019-05-22T10:34:05.535Z,14.80
2019-05-22T10:35:05.702Z,14.90
2019-05-22T10:36:04.869Z,14.90
2019-05-22T10:37:10.465Z,14.80
2019-05-22T10:38:08.181Z,14.90
2019-05-22T10:39:05.449Z,14.90
2019-05-22T10:40:07.572Z,14.90
2019-05-22T10:41:10.619Z,14.90
2019-05-22T10:42:09.869Z,14.90
2019-05-22T10:43:05.026Z,14.80
2019-05-22T10:44:05.002Z,14.90
2019-05-22T10:45:07.822Z,14.90
2019-05-22T10:46:07.703Z,14.90
2019-05-22T10:47:05.006Z,14.90
2019-05-22T10:48:05.067Z,14.90
2019-05-22T10:49:05.373Z,14.90
2019-05-22T10:50:08.163Z,14.90
2019-05-22T10:51:05.076Z,14.90
2019-05-22T10:52:07.900Z,14.90
2019-05-22T10:53:04.963Z,14.90
2019-05-22T10:54:05.051Z,14.90
2019-05-22T10:55:07.749Z,14.90
2019-05-22T10:56:07.344Z,15.00
2019-05-22T10:57:05.355Z,14.90
2019-05-22T10:58:05.427Z,15.00
2019-05-22T10:59:08.094Z,15.00
2019-05-22T11:00:07.693Z,15.00
2019-05-22T11:01:07.235Z,15.00
2019-05-22T11:02:05.238Z,15.00
2019-05-22T11:03:12.899Z,15.10
2019-05-22T11:04:04.845Z,15.10
2019-05-22T11:05:07.802Z,15.00
2019-05-22T11:06:08.082Z,15.00
2019-05-22T11:07:08.119Z,15.00
2019-05-22T11:08:05.349Z,14.40
2019-05-22T11:09:05.612Z,15.00
2019-05-22T11:10:07.421Z,15.00
2019-05-22T11:11:07.913Z,14.90
2019-05-22T11:12:07.347Z,14.90
2019-05-22T11:13:05.229Z,14.90
2019-05-22T11:14:09.553Z,14.90
2019-05-22T11:15:04.775Z,14.90
2019-05-22T11:16:05.118Z,14.90
2019-05-22T11:17:08.047Z,14.90
2019-05-22T11:18:05.106Z,14.90
2019-05-22T11:19:05.349Z,14.90
2019-05-22T11:20:05.517Z,14.90
2019-05-22T11:21:08.092Z,14.90
2019-05-22T11:22:04.996Z,14.90
2019-05-22T11:23:05.214Z,14.90
2019-05-22T11:24:07.836Z,14.90
2019-05-22T11:25:04.844Z,14.90
2019-05-22T11:26:04.996Z,15.00
2019-05-22T11:27:07.569Z,14.90
2019-05-22T11:28:08.118Z,14.90
2019-05-22T11:29:07.653Z,14.90
2019-05-22T11:30:08.158Z,14.90
2019-05-22T11:31:07.714Z,14.90
2019-05-22T11:32:12.383Z,14.90
2019-05-22T11:33:05.372Z,14.90
2019-05-22T11:34:05.447Z,14.90
2019-05-22T11:35:08.065Z,14.90
2019-05-22T11:36:07.649Z,14.90
2019-05-22T11:37:08.149Z,14.90
2019-05-22T11:38:05.101Z,14.90
2019-05-22T11:39:05.246Z,14.80
2019-05-22T11:40:07.992Z,14.80
2019-05-22T11:41:07.831Z,14.80
2019-05-22T11:42:04.979Z,14.80
2019-05-22T11:43:07.859Z,14.80
2019-05-22T11:44:04.930Z,14.70
2019-05-22T11:45:05.527Z,14.70
2019-05-22T11:46:05.579Z,14.70
2019-05-22T11:47:04.735Z,14.70
2019-05-22T11:48:07.347Z,14.70
2019-05-22T11:49:05.365Z,14.70
2019-05-22T11:50:05.534Z,14.70
2019-05-22T11:51:08.221Z,14.70
2019-05-22T11:52:05.160Z,14.70
2019-05-22T11:53:05.234Z,14.70
2019-05-22T11:54:09.500Z,14.80
2019-05-22T11:55:04.980Z,14.80
2019-05-22T11:56:07.609Z,14.80
2019-05-22T11:57:05.537Z,14.80
2019-05-22T11:58:08.143Z,14.90
2019-05-22T11:59:07.746Z,14.90
2019-05-22T12:00:09.278Z,14.90
2019-05-22T12:01:05.398Z,14.90
2019-05-22T12:02:05.663Z,15.00
2019-05-22T12:03:07.351Z,15.10
2019-05-22T12:04:05.294Z,15.10
2019-05-22T12:05:09.874Z,15.20
2019-05-22T12:06:07.516Z,15.30
2019-05-22T12:07:05.556Z,15.30
2019-05-22T12:08:05.679Z,15.30
2019-05-22T12:09:04.751Z,15.40
2019-05-22T12:10:07.305Z,15.50
2019-05-22T12:11:05.338Z,15.50
2019-05-22T12:12:05.726Z,15.50
2019-05-22T12:13:04.803Z,15.60
2019-05-22T12:14:05.099Z,15.60
2019-05-22T12:15:05.241Z,15.60
2019-05-22T12:16:05.312Z,15.70
2019-05-22T12:17:05.446Z,15.70
2019-05-22T12:18:08.154Z,15.60
2019-05-22T12:19:05.096Z,15.60
2019-05-22T12:20:05.176Z,15.60
2019-05-22T12:21:05.305Z,15.60
2019-05-22T12:22:08.116Z,15.60
2019-05-22T12:23:05.074Z,15.60
2019-05-22T12:24:05.174Z,15.60
2019-05-22T12:25:07.899Z,15.50
2019-05-22T12:26:04.824Z,15.50
2019-05-22T12:27:04.872Z,15.50
2019-05-22T12:28:04.954Z,15.50
2019-05-22T12:29:10.277Z,15.50
2019-05-22T12:30:05.588Z,15.50
2019-05-22T12:31:05.671Z,15.50
2019-05-22T12:32:05.336Z,15.50
2019-05-22T12:33:12.441Z,15.50
2019-05-22T12:34:05.324Z,15.50
2019-05-22T12:35:04.954Z,15.50
2019-05-22T12:36:05.062Z,15.50
2019-05-22T12:37:07.781Z,15.60
2019-05-22T12:38:07.493Z,15.60
2019-05-22T12:39:05.761Z,15.60
2019-05-22T12:40:05.125Z,15.70
2019-05-22T12:41:05.412Z,15.70
2019-05-22T12:42:05.683Z,15.80
2019-05-22T12:43:12.798Z,15.80
2019-05-22T12:44:12.846Z,15.80
2019-05-22T12:45:07.870Z,15.80
2019-05-22T12:46:05.272Z,15.80
2019-05-22T12:47:08.219Z,15.90
2019-05-22T12:48:08.112Z,15.90
2019-05-22T12:49:08.696Z,15.80
2019-05-22T12:50:05.754Z,15.80
2019-05-22T12:51:10.326Z,15.90
2019-05-22T12:52:05.610Z,15.80